sensor_id;sensor_type;location;lat;lon;timestamp;P1;durP1;ratioP1;P2;durP2;ratioP2
39242;SDS011;29823;47.404;8.566;2023-01-15T00:00:00;3.58;;;2.17;;
39242;SDS011;29823;47.404;8.566;2023-01-15T00:02:31;8.20;;;2.72;;
39242;SDS011;29823;47.404;8.566;2023-01-15T00:04:59;5.50;;;2.40;;
39242;SDS011;29823;47.404;8.566;2023-01-15T00:07:28;4.10;;;2.17;;
39242;SDS011;29823;47.404;8.566;2023-01-15T00:09:56;8.80;;;3.28;;
39242;SDS011;29823;47.404;8.566;2023-01-15T00:12:24;4.78;;;2.38;;
39242;SDS011;29823;47.404;8.566;2023-01-15T00:14:52;5.55;;;2.55;;
39242;SDS011;29823;47.404;8.566;2023-01-15T00:17:20;7.50;;;2.38;;
39242;SDS011;29823;47.404;8.566;2023-01-15T00:19:49;6.80;;;2.88;;
39242;SDS011;29823;47.404;8.566;2023-01-15T00:22:17;8.38;;;2.72;;
39242;SDS011;29823;47.404;8.566;2023-01-15T00:24:46;5.85;;;2.58;;
39242;SDS011;29823;47.404;8.566;2023-01-15T00:27:31;8.05;;;2.55;;
39242;SDS011;29823;47.404;8.566;2023-01-15T00:30:06;4.65;;;2.10;;
39242;SDS011;29823;47.404;8.566;2023-01-15T00:32:36;3.85;;;2.15;;
39242;SDS011;29823;47.404;8.566;2023-01-15T00:35:06;8.65;;;2.25;;
39242;SDS011;29823;47.404;8.566;2023-01-15T00:37:37;3.65;;;2.33;;
39242;SDS011;29823;47.404;8.566;2023-01-15T00:40:06;5.03;;;2.38;;
39242;SDS011;29823;47.404;8.566;2023-01-15T00:42:35;5.53;;;2.40;;
39242;SDS011;29823;47.404;8.566;2023-01-15T00:45:03;4.57;;;2.15;;
39242;SDS011;29823;47.404;8.566;2023-01-15T00:47:35;5.47;;;1.92;;
39242;SDS011;29823;47.404;8.566;2023-01-15T00:50:06;3.67;;;1.80;;
39242;SDS011;29823;47.404;8.566;2023-01-15T00:52:36;4.95;;;1.90;;
39242;SDS011;29823;47.404;8.566;2023-01-15T00:55:05;5.57;;;2.10;;
39242;SDS011;29823;47.404;8.566;2023-01-15T00:57:34;2.78;;;1.30;;
39242;SDS011;29823;47.404;8.566;2023-01-15T01:00:02;2.90;;;1.40;;
39242;SDS011;29823;47.404;8.566;2023-01-15T01:02:30;8.30;;;1.25;;
39242;SDS011;29823;47.404;8.566;2023-01-15T01:04:58;5.20;;;1.20;;
39242;SDS011;29823;47.404;8.566;2023-01-15T01:07:27;2.63;;;1.25;;
39242;SDS011;29823;47.404;8.566;2023-01-15T01:09:55;2.28;;;1.00;;
39242;SDS011;29823;47.404;8.566;2023-01-15T01:12:23;1.38;;;0.98;;
39242;SDS011;29823;47.404;8.566;2023-01-15T01:14:51;1.45;;;0.85;;
39242;SDS011;29823;47.404;8.566;2023-01-15T01:17:19;1.95;;;0.90;;
39242;SDS011;29823;47.404;8.566;2023-01-15T01:19:47;2.13;;;0.98;;
39242;SDS011;29823;47.404;8.566;2023-01-15T01:22:14;1.63;;;0.90;;
39242;SDS011;29823;47.404;8.566;2023-01-15T01:24:44;1.88;;;0.90;;
39242;SDS011;29823;47.404;8.566;2023-01-15T01:27:12;2.67;;;0.80;;
39242;SDS011;29823;47.404;8.566;2023-01-15T01:29:40;1.85;;;0.70;;
39242;SDS011;29823;47.404;8.566;2023-01-15T01:32:08;1.52;;;0.90;;
39242;SDS011;29823;47.404;8.566;2023-01-15T01:34:35;2.15;;;1.05;;
39242;SDS011;29823;47.404;8.566;2023-01-15T01:37:03;1.40;;;1.00;;
39242;SDS011;29823;47.404;8.566;2023-01-15T01:39:31;1.38;;;0.88;;
39242;SDS011;29823;47.404;8.566;2023-01-15T01:42:00;3.50;;;0.95;;
39242;SDS011;29823;47.404;8.566;2023-01-15T01:47:24;2.47;;;0.88;;
39242;SDS011;29823;47.404;8.566;2023-01-15T01:49:56;0.80;;;0.75;;
39242;SDS011;29823;47.404;8.566;2023-01-15T01:52:28;1.83;;;1.10;;
39242;SDS011;29823;47.404;8.566;2023-01-15T01:54:59;3.22;;;0.77;;
39242;SDS011;29823;47.404;8.566;2023-01-15T01:57:30;0.88;;;0.77;;
39242;SDS011;29823;47.404;8.566;2023-01-15T01:59:59;2.20;;;1.00;;
39242;SDS011;29823;47.404;8.566;2023-01-15T02:02:30;1.73;;;0.90;;
39242;SDS011;29823;47.404;8.566;2023-01-15T02:04:58;1.77;;;0.60;;
39242;SDS011;29823;47.404;8.566;2023-01-15T02:07:26;4.63;;;1.10;;
39242;SDS011;29823;47.404;8.566;2023-01-15T02:09:56;1.52;;;0.90;;
39242;SDS011;29823;47.404;8.566;2023-01-15T02:12:25;2.13;;;0.95;;
39242;SDS011;29823;47.404;8.566;2023-01-15T02:15:00;0.95;;;0.70;;
39242;SDS011;29823;47.404;8.566;2023-01-15T02:17:34;3.58;;;1.00;;
39242;SDS011;29823;47.404;8.566;2023-01-15T02:20:19;0.98;;;0.70;;
39242;SDS011;29823;47.404;8.566;2023-01-15T02:22:57;2.13;;;0.80;;
39242;SDS011;29823;47.404;8.566;2023-01-15T02:25:38;1.50;;;0.68;;
39242;SDS011;29823;47.404;8.566;2023-01-15T02:28:20;1.15;;;0.73;;
39242;SDS011;29823;47.404;8.566;2023-01-15T02:30:52;1.20;;;0.80;;
39242;SDS011;29823;47.404;8.566;2023-01-15T02:33:25;1.27;;;0.70;;
39242;SDS011;29823;47.404;8.566;2023-01-15T02:36:00;1.88;;;0.85;;
39242;SDS011;29823;47.404;8.566;2023-01-15T02:38:33;2.58;;;0.70;;
39242;SDS011;29823;47.404;8.566;2023-01-15T02:41:04;0.75;;;0.68;;
39242;SDS011;29823;47.404;8.566;2023-01-15T02:43:43;1.70;;;0.77;;
39242;SDS011;29823;47.404;8.566;2023-01-15T02:46:14;1.58;;;0.93;;
39242;SDS011;29823;47.404;8.566;2023-01-15T02:48:45;2.55;;;0.80;;
39242;SDS011;29823;47.404;8.566;2023-01-15T02:51:18;1.85;;;1.00;;
39242;SDS011;29823;47.404;8.566;2023-01-15T02:53:48;3.53;;;0.85;;
39242;SDS011;29823;47.404;8.566;2023-01-15T02:56:19;1.25;;;0.88;;
39242;SDS011;29823;47.404;8.566;2023-01-15T02:58:52;1.98;;;0.80;;
39242;SDS011;29823;47.404;8.566;2023-01-15T03:01:25;1.00;;;0.80;;
39242;SDS011;29823;47.404;8.566;2023-01-15T03:03:58;1.85;;;1.00;;
39242;SDS011;29823;47.404;8.566;2023-01-15T03:06:34;2.53;;;0.90;;
39242;SDS011;29823;47.404;8.566;2023-01-15T03:09:05;1.77;;;0.90;;
39242;SDS011;29823;47.404;8.566;2023-01-15T03:11:36;1.13;;;0.95;;
39242;SDS011;29823;47.404;8.566;2023-01-15T03:14:12;1.10;;;0.90;;
39242;SDS011;29823;47.404;8.566;2023-01-15T03:16:46;1.33;;;0.70;;
39242;SDS011;29823;47.404;8.566;2023-01-15T03:19:21;2.05;;;0.75;;
39242;SDS011;29823;47.404;8.566;2023-01-15T03:21:54;1.83;;;0.90;;
39242;SDS011;29823;47.404;8.566;2023-01-15T03:24:26;1.70;;;0.80;;
39242;SDS011;29823;47.404;8.566;2023-01-15T03:26:58;1.98;;;0.90;;
39242;SDS011;29823;47.404;8.566;2023-01-15T03:29:28;2.15;;;0.73;;
39242;SDS011;29823;47.404;8.566;2023-01-15T03:31:59;2.70;;;0.77;;
39242;SDS011;29823;47.404;8.566;2023-01-15T03:34:28;1.60;;;0.95;;
39242;SDS011;29823;47.404;8.566;2023-01-15T03:37:02;1.70;;;0.80;;
39242;SDS011;29823;47.404;8.566;2023-01-15T03:39:30;1.23;;;0.90;;
39242;SDS011;29823;47.404;8.566;2023-01-15T03:42:02;1.88;;;0.85;;
39242;SDS011;29823;47.404;8.566;2023-01-15T03:44:39;0.70;;;0.68;;
39242;SDS011;29823;47.404;8.566;2023-01-15T03:47:28;0.73;;;0.70;;
39242;SDS011;29823;47.404;8.566;2023-01-15T03:50:06;1.33;;;0.63;;
39242;SDS011;29823;47.404;8.566;2023-01-15T03:52:43;2.75;;;1.10;;
39242;SDS011;29823;47.404;8.566;2023-01-15T03:55:15;1.35;;;0.80;;
39242;SDS011;29823;47.404;8.566;2023-01-15T03:57:48;0.88;;;0.77;;
39242;SDS011;29823;47.404;8.566;2023-01-15T04:00:20;2.80;;;1.10;;
39242;SDS011;29823;47.404;8.566;2023-01-15T04:02:51;1.58;;;0.90;;
39242;SDS011;29823;47.404;8.566;2023-01-15T04:05:21;2.00;;;0.90;;
39242;SDS011;29823;47.404;8.566;2023-01-15T04:07:51;1.05;;;0.75;;
39242;SDS011;29823;47.404;8.566;2023-01-15T04:10:21;2.20;;;1.10;;
39242;SDS011;29823;47.404;8.566;2023-01-15T04:12:49;1.95;;;1.10;;
39242;SDS011;29823;47.404;8.566;2023-01-15T04:15:17;2.55;;;1.08;;
39242;SDS011;29823;47.404;8.566;2023-01-15T04:17:46;1.88;;;0.95;;
39242;SDS011;29823;47.404;8.566;2023-01-15T04:20:15;1.48;;;1.00;;
39242;SDS011;29823;47.404;8.566;2023-01-15T04:22:43;1.65;;;0.90;;
39242;SDS011;29823;47.404;8.566;2023-01-15T04:25:10;1.73;;;0.90;;
39242;SDS011;29823;47.404;8.566;2023-01-15T04:27:38;0.98;;;0.88;;
39242;SDS011;29823;47.404;8.566;2023-01-15T04:30:07;4.00;;;0.70;;
39242;SDS011;29823;47.404;8.566;2023-01-15T04:32:35;5.68;;;0.90;;
39242;SDS011;29823;47.404;8.566;2023-01-15T04:35:05;2.22;;;0.90;;
39242;SDS011;29823;47.404;8.566;2023-01-15T04:37:33;2.95;;;0.73;;
39242;SDS011;29823;47.404;8.566;2023-01-15T04:40:00;1.63;;;0.95;;
39242;SDS011;29823;47.404;8.566;2023-01-15T04:42:28;1.38;;;0.75;;
39242;SDS011;29823;47.404;8.566;2023-01-15T04:45:14;1.20;;;0.85;;
39242;SDS011;29823;47.404;8.566;2023-01-15T04:47:42;1.58;;;0.90;;
39242;SDS011;29823;47.404;8.566;2023-01-15T04:50:11;2.83;;;0.90;;
39242;SDS011;29823;47.404;8.566;2023-01-15T04:52:39;1.52;;;0.85;;
39242;SDS011;29823;47.404;8.566;2023-01-15T04:55:07;3.38;;;0.93;;
39242;SDS011;29823;47.404;8.566;2023-01-15T04:57:35;4.43;;;0.93;;
39242;SDS011;29823;47.404;8.566;2023-01-15T05:00:05;1.60;;;0.77;;
39242;SDS011;29823;47.404;8.566;2023-01-15T05:02:33;1.10;;;0.90;;
39242;SDS011;29823;47.404;8.566;2023-01-15T05:05:01;2.28;;;0.70;;
39242;SDS011;29823;47.404;8.566;2023-01-15T05:07:31;1.27;;;0.70;;
39242;SDS011;29823;47.404;8.566;2023-01-15T05:09:59;0.68;;;0.60;;
39242;SDS011;29823;47.404;8.566;2023-01-15T05:12:27;1.63;;;0.90;;
39242;SDS011;29823;47.404;8.566;2023-01-15T05:14:55;1.25;;;0.80;;
39242;SDS011;29823;47.404;8.566;2023-01-15T05:17:22;0.98;;;0.68;;
39242;SDS011;29823;47.404;8.566;2023-01-15T05:19:50;1.58;;;0.60;;
39242;SDS011;29823;47.404;8.566;2023-01-15T05:22:18;0.63;;;0.60;;
39242;SDS011;29823;47.404;8.566;2023-01-15T05:24:47;1.10;;;0.80;;
39242;SDS011;29823;47.404;8.566;2023-01-15T05:27:15;0.63;;;0.50;;
39242;SDS011;29823;47.404;8.566;2023-01-15T05:29:43;1.33;;;0.63;;
39242;SDS011;29823;47.404;8.566;2023-01-15T05:32:11;1.63;;;0.88;;
39242;SDS011;29823;47.404;8.566;2023-01-15T05:34:38;0.95;;;0.68;;
39242;SDS011;29823;47.404;8.566;2023-01-15T05:37:07;0.63;;;0.63;;
39242;SDS011;29823;47.404;8.566;2023-01-15T05:39:35;0.70;;;0.50;;
39242;SDS011;29823;47.404;8.566;2023-01-15T05:42:04;1.10;;;0.60;;
39242;SDS011;29823;47.404;8.566;2023-01-15T05:44:33;0.50;;;0.50;;
39242;SDS011;29823;47.404;8.566;2023-01-15T05:47:01;3.83;;;0.80;;
39242;SDS011;29823;47.404;8.566;2023-01-15T05:49:31;0.65;;;0.65;;
39242;SDS011;29823;47.404;8.566;2023-01-15T05:51:59;0.82;;;0.57;;
39242;SDS011;29823;47.404;8.566;2023-01-15T05:54:28;1.17;;;0.45;;
39242;SDS011;29823;47.404;8.566;2023-01-15T05:56:58;0.60;;;0.50;;
39242;SDS011;29823;47.404;8.566;2023-01-15T05:59:28;0.68;;;0.60;;
39242;SDS011;29823;47.404;8.566;2023-01-15T06:01:57;1.48;;;0.70;;
39242;SDS011;29823;47.404;8.566;2023-01-15T06:04:26;1.38;;;0.60;;
39242;SDS011;29823;47.404;8.566;2023-01-15T06:06:54;1.52;;;0.73;;
39242;SDS011;29823;47.404;8.566;2023-01-15T06:09:23;0.57;;;0.50;;
39242;SDS011;29823;47.404;8.566;2023-01-15T06:11:53;1.88;;;0.70;;
39242;SDS011;29823;47.404;8.566;2023-01-15T06:14:21;0.50;;;0.50;;
39242;SDS011;29823;47.404;8.566;2023-01-15T06:16:51;0.47;;;0.47;;
39242;SDS011;29823;47.404;8.566;2023-01-15T06:19:18;1.00;;;0.65;;
39242;SDS011;29823;47.404;8.566;2023-01-15T06:21:47;1.05;;;0.70;;
39242;SDS011;29823;47.404;8.566;2023-01-15T06:24:15;0.40;;;0.40;;
39242;SDS011;29823;47.404;8.566;2023-01-15T06:26:45;0.70;;;0.60;;
39242;SDS011;29823;47.404;8.566;2023-01-15T06:29:13;1.58;;;0.93;;
39242;SDS011;29823;47.404;8.566;2023-01-15T06:31:44;0.50;;;0.50;;
39242;SDS011;29823;47.404;8.566;2023-01-15T06:34:14;2.05;;;0.47;;
39242;SDS011;29823;47.404;8.566;2023-01-15T06:36:41;2.25;;;1.20;;
39242;SDS011;29823;47.404;8.566;2023-01-15T06:39:10;3.55;;;1.10;;
39242;SDS011;29823;47.404;8.566;2023-01-15T06:41:38;0.45;;;0.40;;
39242;SDS011;29823;47.404;8.566;2023-01-15T06:44:23;2.45;;;0.52;;
39242;SDS011;29823;47.404;8.566;2023-01-15T06:47:11;0.60;;;0.50;;
39242;SDS011;29823;47.404;8.566;2023-01-15T06:49:49;1.08;;;0.60;;
39242;SDS011;29823;47.404;8.566;2023-01-15T06:52:17;0.75;;;0.43;;
39242;SDS011;29823;47.404;8.566;2023-01-15T06:54:45;1.58;;;0.50;;
39242;SDS011;29823;47.404;8.566;2023-01-15T06:57:13;1.83;;;0.70;;
39242;SDS011;29823;47.404;8.566;2023-01-15T06:59:41;1.05;;;0.60;;
39242;SDS011;29823;47.404;8.566;2023-01-15T07:02:09;0.73;;;0.50;;
39242;SDS011;29823;47.404;8.566;2023-01-15T07:04:38;1.95;;;0.70;;
39242;SDS011;29823;47.404;8.566;2023-01-15T07:07:07;0.60;;;0.60;;
39242;SDS011;29823;47.404;8.566;2023-01-15T07:09:35;3.58;;;0.65;;
39242;SDS011;29823;47.404;8.566;2023-01-15T07:12:03;2.60;;;0.70;;
39242;SDS011;29823;47.404;8.566;2023-01-15T07:14:31;1.15;;;0.80;;
39242;SDS011;29823;47.404;8.566;2023-01-15T07:16:59;1.40;;;0.70;;
39242;SDS011;29823;47.404;8.566;2023-01-15T07:19:27;0.90;;;0.68;;
39242;SDS011;29823;47.404;8.566;2023-01-15T07:21:55;1.50;;;0.70;;
39242;SDS011;29823;47.404;8.566;2023-01-15T07:24:24;2.25;;;0.75;;
39242;SDS011;29823;47.404;8.566;2023-01-15T07:26:52;2.42;;;0.80;;
39242;SDS011;29823;47.404;8.566;2023-01-15T07:29:20;0.88;;;0.70;;
39242;SDS011;29823;47.404;8.566;2023-01-15T07:31:49;0.70;;;0.60;;
39242;SDS011;29823;47.404;8.566;2023-01-15T07:34:17;1.15;;;0.80;;
39242;SDS011;29823;47.404;8.566;2023-01-15T07:36:45;1.02;;;0.70;;
39242;SDS011;29823;47.404;8.566;2023-01-15T07:39:12;2.42;;;1.10;;
39242;SDS011;29823;47.404;8.566;2023-01-15T07:41:42;2.28;;;0.57;;
39242;SDS011;29823;47.404;8.566;2023-01-15T07:44:41;2.63;;;0.90;;
39242;SDS011;29823;47.404;8.566;2023-01-15T07:47:27;1.33;;;0.75;;
39242;SDS011;29823;47.404;8.566;2023-01-15T07:50:13;1.05;;;0.60;;
39242;SDS011;29823;47.404;8.566;2023-01-15T07:52:42;1.67;;;0.70;;
39242;SDS011;29823;47.404;8.566;2023-01-15T07:55:10;0.90;;;0.60;;
39242;SDS011;29823;47.404;8.566;2023-01-15T07:57:40;3.35;;;0.57;;
39242;SDS011;29823;47.404;8.566;2023-01-15T08:00:11;2.50;;;0.80;;
39242;SDS011;29823;47.404;8.566;2023-01-15T08:02:42;0.95;;;0.70;;
39242;SDS011;29823;47.404;8.566;2023-01-15T08:05:11;0.55;;;0.52;;
39242;SDS011;29823;47.404;8.566;2023-01-15T08:07:39;0.73;;;0.68;;
39242;SDS011;29823;47.404;8.566;2023-01-15T08:10:08;0.70;;;0.63;;
39242;SDS011;29823;47.404;8.566;2023-01-15T08:12:38;1.30;;;0.60;;
39242;SDS011;29823;47.404;8.566;2023-01-15T08:15:25;0.60;;;0.50;;
39242;SDS011;29823;47.404;8.566;2023-01-15T08:17:53;2.03;;;0.70;;
39242;SDS011;29823;47.404;8.566;2023-01-15T08:20:23;2.40;;;1.10;;
39242;SDS011;29823;47.404;8.566;2023-01-15T08:22:52;1.02;;;0.88;;
39242;SDS011;29823;47.404;8.566;2023-01-15T08:25:21;1.10;;;0.80;;
39242;SDS011;29823;47.404;8.566;2023-01-15T08:27:51;0.80;;;0.70;;
39242;SDS011;29823;47.404;8.566;2023-01-15T08:30:20;2.13;;;1.08;;
39242;SDS011;29823;47.404;8.566;2023-01-15T08:32:51;1.60;;;0.82;;
39242;SDS011;29823;47.404;8.566;2023-01-15T08:35:19;0.73;;;0.50;;
39242;SDS011;29823;47.404;8.566;2023-01-15T08:37:47;0.60;;;0.57;;
39242;SDS011;29823;47.404;8.566;2023-01-15T08:40:15;0.30;;;0.30;;
39242;SDS011;29823;47.404;8.566;2023-01-15T08:42:43;0.30;;;0.30;;
39242;SDS011;29823;47.404;8.566;2023-01-15T08:45:11;0.30;;;0.30;;
39242;SDS011;29823;47.404;8.566;2023-01-15T08:47:39;0.40;;;0.40;;
39242;SDS011;29823;47.404;8.566;2023-01-15T08:50:09;0.30;;;0.30;;
39242;SDS011;29823;47.404;8.566;2023-01-15T08:52:38;1.10;;;0.38;;
39242;SDS011;29823;47.404;8.566;2023-01-15T08:55:06;0.70;;;0.50;;
39242;SDS011;29823;47.404;8.566;2023-01-15T08:57:34;0.40;;;0.40;;
39242;SDS011;29823;47.404;8.566;2023-01-15T09:00:04;0.30;;;0.30;;
39242;SDS011;29823;47.404;8.566;2023-01-15T09:02:32;2.65;;;0.38;;
39242;SDS011;29823;47.404;8.566;2023-01-15T09:05:00;0.30;;;0.30;;
39242;SDS011;29823;47.404;8.566;2023-01-15T09:07:30;0.30;;;0.30;;
39242;SDS011;29823;47.404;8.566;2023-01-15T09:09:57;1.15;;;0.45;;
39242;SDS011;29823;47.404;8.566;2023-01-15T09:12:25;0.28;;;0.28;;
39242;SDS011;29823;47.404;8.566;2023-01-15T09:14:54;0.80;;;0.45;;
39242;SDS011;29823;47.404;8.566;2023-01-15T09:17:27;0.88;;;0.40;;
39242;SDS011;29823;47.404;8.566;2023-01-15T09:19:55;1.45;;;0.22;;
39242;SDS011;29823;47.404;8.566;2023-01-15T09:22:23;0.50;;;0.50;;
39242;SDS011;29823;47.404;8.566;2023-01-15T09:27:24;0.20;;;0.20;;
39242;SDS011;29823;47.404;8.566;2023-01-15T09:29:52;0.30;;;0.30;;
39242;SDS011;29823;47.404;8.566;2023-01-15T09:32:20;0.38;;;0.38;;
39242;SDS011;29823;47.404;8.566;2023-01-15T09:34:48;0.40;;;0.40;;
39242;SDS011;29823;47.404;8.566;2023-01-15T09:37:16;0.40;;;0.40;;
39242;SDS011;29823;47.404;8.566;2023-01-15T09:39:44;0.28;;;0.28;;
39242;SDS011;29823;47.404;8.566;2023-01-15T09:42:17;0.28;;;0.28;;
39242;SDS011;29823;47.404;8.566;2023-01-15T09:45:06;1.90;;;0.30;;
39242;SDS011;29823;47.404;8.566;2023-01-15T09:47:49;0.20;;;0.20;;
39242;SDS011;29823;47.404;8.566;2023-01-15T09:50:27;0.50;;;0.50;;
39242;SDS011;29823;47.404;8.566;2023-01-15T09:53:09;3.97;;;1.90;;
39242;SDS011;29823;47.404;8.566;2023-01-15T09:55:47;0.57;;;0.40;;
39242;SDS011;29823;47.404;8.566;2023-01-15T09:58:18;0.52;;;0.38;;
39242;SDS011;29823;47.404;8.566;2023-01-15T10:00:49;0.43;;;0.40;;
39242;SDS011;29823;47.404;8.566;2023-01-15T10:03:27;0.30;;;0.30;;
39242;SDS011;29823;47.404;8.566;2023-01-15T10:06:02;0.90;;;0.40;;
39242;SDS011;29823;47.404;8.566;2023-01-15T10:08:35;0.40;;;0.40;;
39242;SDS011;29823;47.404;8.566;2023-01-15T10:11:18;0.50;;;0.40;;
39242;SDS011;29823;47.404;8.566;2023-01-15T10:14:13;1.10;;;0.50;;
39242;SDS011;29823;47.404;8.566;2023-01-15T10:19:42;1.55;;;0.57;;
39242;SDS011;29823;47.404;8.566;2023-01-15T10:22:11;1.15;;;0.47;;
39242;SDS011;29823;47.404;8.566;2023-01-15T10:24:54;0.85;;;0.63;;
39242;SDS011;29823;47.404;8.566;2023-01-15T10:27:24;1.27;;;0.70;;
39242;SDS011;29823;47.404;8.566;2023-01-15T10:29:58;2.20;;;0.70;;
39242;SDS011;29823;47.404;8.566;2023-01-15T10:32:32;2.08;;;1.00;;
39242;SDS011;29823;47.404;8.566;2023-01-15T10:35:29;0.75;;;0.40;;
39242;SDS011;29823;47.404;8.566;2023-01-15T10:38:05;0.40;;;0.40;;
39242;SDS011;29823;47.404;8.566;2023-01-15T10:41:03;0.50;;;0.50;;
39242;SDS011;29823;47.404;8.566;2023-01-15T10:43:41;0.82;;;0.57;;
39242;SDS011;29823;47.404;8.566;2023-01-15T10:46:16;0.85;;;0.45;;
39242;SDS011;29823;47.404;8.566;2023-01-15T10:48:45;0.95;;;0.32;;
39242;SDS011;29823;47.404;8.566;2023-01-15T10:51:17;1.65;;;0.57;;
39242;SDS011;29823;47.404;8.566;2023-01-15T10:53:48;1.17;;;0.50;;
39242;SDS011;29823;47.404;8.566;2023-01-15T10:56:20;0.40;;;0.40;;
39242;SDS011;29823;47.404;8.566;2023-01-15T10:59:00;0.82;;;0.60;;
39242;SDS011;29823;47.404;8.566;2023-01-15T11:01:36;1.27;;;0.60;;
39242;SDS011;29823;47.404;8.566;2023-01-15T11:04:07;0.43;;;0.43;;
39242;SDS011;29823;47.404;8.566;2023-01-15T11:06:35;0.55;;;0.50;;
39242;SDS011;29823;47.404;8.566;2023-01-15T11:09:03;1.30;;;0.70;;
39242;SDS011;29823;47.404;8.566;2023-01-15T11:11:37;0.80;;;0.60;;
39242;SDS011;29823;47.404;8.566;2023-01-15T11:14:30;1.42;;;0.63;;
39242;SDS011;29823;47.404;8.566;2023-01-15T11:17:18;1.38;;;0.50;;
39242;SDS011;29823;47.404;8.566;2023-01-15T11:20:09;0.80;;;0.60;;
39242;SDS011;29823;47.404;8.566;2023-01-15T11:22:43;0.60;;;0.38;;
39242;SDS011;29823;47.404;8.566;2023-01-15T11:25:10;0.47;;;0.40;;
39242;SDS011;29823;47.404;8.566;2023-01-15T11:27:38;1.85;;;0.60;;
39242;SDS011;29823;47.404;8.566;2023-01-15T11:32:56;2.88;;;1.70;;
39242;SDS011;29823;47.404;8.566;2023-01-15T11:35:24;2.55;;;1.60;;
39242;SDS011;29823;47.404;8.566;2023-01-15T11:38:02;1.88;;;0.90;;
39242;SDS011;29823;47.404;8.566;2023-01-15T11:40:32;2.47;;;0.40;;
39242;SDS011;29823;47.404;8.566;2023-01-15T11:43:00;0.88;;;0.50;;
39242;SDS011;29823;47.404;8.566;2023-01-15T11:45:45;1.10;;;0.63;;
39242;SDS011;29823;47.404;8.566;2023-01-15T11:48:41;0.68;;;0.40;;
39242;SDS011;29823;47.404;8.566;2023-01-15T11:51:28;0.30;;;0.30;;
39242;SDS011;29823;47.404;8.566;2023-01-15T11:54:01;0.90;;;0.60;;
39242;SDS011;29823;47.404;8.566;2023-01-15T11:56:31;0.63;;;0.30;;
39242;SDS011;29823;47.404;8.566;2023-01-15T11:59:01;0.85;;;0.30;;
39242;SDS011;29823;47.404;8.566;2023-01-15T12:01:36;1.58;;;0.68;;
39242;SDS011;29823;47.404;8.566;2023-01-15T12:04:21;0.45;;;0.40;;
39242;SDS011;29823;47.404;8.566;2023-01-15T12:06:53;1.88;;;1.08;;
39242;SDS011;29823;47.404;8.566;2023-01-15T12:09:22;1.88;;;0.80;;
39242;SDS011;29823;47.404;8.566;2023-01-15T12:12:01;0.40;;;0.30;;
39242;SDS011;29823;47.404;8.566;2023-01-15T12:17:49;0.40;;;0.40;;
39242;SDS011;29823;47.404;8.566;2023-01-15T12:20:45;0.85;;;0.50;;
39242;SDS011;29823;47.404;8.566;2023-01-15T12:26:22;0.25;;;0.25;;
39242;SDS011;29823;47.404;8.566;2023-01-15T12:31:26;0.50;;;0.50;;
39242;SDS011;29823;47.404;8.566;2023-01-15T12:34:00;0.73;;;0.40;;
39242;SDS011;29823;47.404;8.566;2023-01-15T12:36:40;0.73;;;0.50;;
39242;SDS011;29823;47.404;8.566;2023-01-15T12:39:17;0.73;;;0.52;;
39242;SDS011;29823;47.404;8.566;2023-01-15T12:41:49;0.40;;;0.40;;
39242;SDS011;29823;47.404;8.566;2023-01-15T12:44:39;0.60;;;0.40;;
39242;SDS011;29823;47.404;8.566;2023-01-15T12:47:31;3.03;;;0.60;;
39242;SDS011;29823;47.404;8.566;2023-01-15T12:50:10;0.55;;;0.40;;
39242;SDS011;29823;47.404;8.566;2023-01-15T12:52:56;0.60;;;0.40;;
39242;SDS011;29823;47.404;8.566;2023-01-15T12:55:32;1.27;;;0.40;;
39242;SDS011;29823;47.404;8.566;2023-01-15T12:58:04;0.80;;;0.50;;
39242;SDS011;29823;47.404;8.566;2023-01-15T13:00:40;0.88;;;0.65;;
39242;SDS011;29823;47.404;8.566;2023-01-15T13:03:18;0.95;;;0.70;;
39242;SDS011;29823;47.404;8.566;2023-01-15T13:05:51;2.03;;;0.60;;
39242;SDS011;29823;47.404;8.566;2023-01-15T13:10:55;1.50;;;0.70;;
39242;SDS011;29823;47.404;8.566;2023-01-15T13:13:23;0.60;;;0.40;;
39242;SDS011;29823;47.404;8.566;2023-01-15T13:15:58;0.50;;;0.50;;
39242;SDS011;29823;47.404;8.566;2023-01-15T13:18:38;1.03;;;0.73;;
39242;SDS011;29823;47.404;8.566;2023-01-15T13:21:15;1.17;;;0.80;;
39242;SDS011;29823;47.404;8.566;2023-01-15T13:23:54;0.55;;;0.55;;
39242;SDS011;29823;47.404;8.566;2023-01-15T13:29:29;0.77;;;0.60;;
39242;SDS011;29823;47.404;8.566;2023-01-15T13:32:07;1.05;;;0.75;;
39242;SDS011;29823;47.404;8.566;2023-01-15T13:34:42;3.75;;;0.55;;
39242;SDS011;29823;47.404;8.566;2023-01-15T13:37:18;2.08;;;0.65;;
39242;SDS011;29823;47.404;8.566;2023-01-15T13:39:53;2.20;;;0.55;;
39242;SDS011;29823;47.404;8.566;2023-01-15T13:42:25;1.02;;;0.65;;
39242;SDS011;29823;47.404;8.566;2023-01-15T13:45:04;3.03;;;0.73;;
39242;SDS011;29823;47.404;8.566;2023-01-15T13:47:52;1.02;;;0.90;;
39242;SDS011;29823;47.404;8.566;2023-01-15T13:50:26;0.82;;;0.73;;
39242;SDS011;29823;47.404;8.566;2023-01-15T13:53:00;0.85;;;0.60;;
39242;SDS011;29823;47.404;8.566;2023-01-15T13:55:31;0.57;;;0.50;;
39242;SDS011;29823;47.404;8.566;2023-01-15T13:58:02;0.50;;;0.50;;
39242;SDS011;29823;47.404;8.566;2023-01-15T14:00:43;2.30;;;0.50;;
39242;SDS011;29823;47.404;8.566;2023-01-15T14:03:23;0.80;;;0.60;;
39242;SDS011;29823;47.404;8.566;2023-01-15T14:05:53;1.42;;;0.73;;
39242;SDS011;29823;47.404;8.566;2023-01-15T14:08:24;0.50;;;0.50;;
39242;SDS011;29823;47.404;8.566;2023-01-15T14:10:54;0.40;;;0.40;;
39242;SDS011;29823;47.404;8.566;2023-01-15T14:16:19;3.38;;;0.60;;
39242;SDS011;29823;47.404;8.566;2023-01-15T14:19:09;2.30;;;0.80;;
39242;SDS011;29823;47.404;8.566;2023-01-15T14:22:12;1.48;;;1.00;;
39242;SDS011;29823;47.404;8.566;2023-01-15T14:25:02;1.30;;;0.82;;
39242;SDS011;29823;47.404;8.566;2023-01-15T14:27:50;1.10;;;0.77;;
39242;SDS011;29823;47.404;8.566;2023-01-15T14:30:37;1.42;;;0.70;;
39242;SDS011;29823;47.404;8.566;2023-01-15T14:33:26;2.30;;;0.60;;
39242;SDS011;29823;47.404;8.566;2023-01-15T14:36:07;1.85;;;0.80;;
39242;SDS011;29823;47.404;8.566;2023-01-15T14:38:37;1.05;;;0.90;;
39242;SDS011;29823;47.404;8.566;2023-01-15T14:41:14;2.38;;;1.70;;
39242;SDS011;29823;47.404;8.566;2023-01-15T14:43:47;2.20;;;1.10;;
39242;SDS011;29823;47.404;8.566;2023-01-15T14:46:20;1.60;;;0.80;;
39242;SDS011;29823;47.404;8.566;2023-01-15T14:48:53;1.67;;;0.80;;
39242;SDS011;29823;47.404;8.566;2023-01-15T14:51:23;1.70;;;0.82;;
39242;SDS011;29823;47.404;8.566;2023-01-15T14:53:54;1.13;;;0.77;;
39242;SDS011;29823;47.404;8.566;2023-01-15T14:56:26;0.73;;;0.60;;
39242;SDS011;29823;47.404;8.566;2023-01-15T14:59:00;1.25;;;0.65;;
39242;SDS011;29823;47.404;8.566;2023-01-15T15:01:36;0.90;;;0.70;;
39242;SDS011;29823;47.404;8.566;2023-01-15T15:04:14;1.08;;;0.80;;
39242;SDS011;29823;47.404;8.566;2023-01-15T15:06:49;1.35;;;0.60;;
39242;SDS011;29823;47.404;8.566;2023-01-15T15:09:24;1.13;;;0.73;;
39242;SDS011;29823;47.404;8.566;2023-01-15T15:11:58;0.65;;;0.63;;
39242;SDS011;29823;47.404;8.566;2023-01-15T15:14:50;1.75;;;0.52;;
39242;SDS011;29823;47.404;8.566;2023-01-15T15:17:28;1.95;;;0.50;;
39242;SDS011;29823;47.404;8.566;2023-01-15T15:20:06;1.73;;;1.00;;
39242;SDS011;29823;47.404;8.566;2023-01-15T15:22:46;1.10;;;0.68;;
39242;SDS011;29823;47.404;8.566;2023-01-15T15:25:18;0.95;;;0.57;;
39242;SDS011;29823;47.404;8.566;2023-01-15T15:27:59;0.85;;;0.60;;
39242;SDS011;29823;47.404;8.566;2023-01-15T15:30:29;1.00;;;0.70;;
39242;SDS011;29823;47.404;8.566;2023-01-15T15:33:02;4.82;;;0.80;;
39242;SDS011;29823;47.404;8.566;2023-01-15T15:35:30;2.33;;;0.80;;
39242;SDS011;29823;47.404;8.566;2023-01-15T15:38:02;0.88;;;0.70;;
39242;SDS011;29823;47.404;8.566;2023-01-15T15:40:32;1.02;;;0.60;;
39242;SDS011;29823;47.404;8.566;2023-01-15T15:43:03;1.80;;;0.70;;
39242;SDS011;29823;47.404;8.566;2023-01-15T15:45:56;1.27;;;0.68;;
39242;SDS011;29823;47.404;8.566;2023-01-15T15:48:42;1.75;;;0.68;;